Time;durP1;ratioP1;P1;durP2;ratioP2;P2;SDS_P1;SDS_P2;PMS_P1;PMS_P2;Temp;Humidity;BMP_temperature;BMP_pressure;BME280_temperature;BME280_humidity;BME280_pressure;Samples;Min_cycle;Max_cycle;Signal;HPM_P1;HPM_P2
2023/01/21 00:00:03;;;;;;;22.77;13.90;;;-5.30;99.90;;;;;;6220133;23;20055;-90
2023/01/21 00:02:50;;;;;;;29.17;16.33;;;-5.30;1.00;;;;;;6199629;23;20025;-89
2023/01/21 00:05:42;;;;;;;33.83;17.27;;;-5.10;99.90;;;;;;6219966;23;20032;-89
2023/01/21 00:08:29;;;;;;;25.20;13.60;;;-5.00;53.80;;;;;;6201016;23;20040;-88
2023/01/21 00:11:16;;;;;;;37.22;16.00;;;-5.00;99.90;;;;;;6207444;23;20025;-88
2023/01/21 00:14:03;;;;;;;33.30;16.85;;;-5.00;99.90;;;;;;6227387;23;20056;-87
2023/01/21 00:16:52;;;;;;;33.58;17.10;;;-5.00;99.90;;;;;;6230440;23;20059;-88
2023/01/21 00:19:39;;;;;;;43.13;21.58;;;-4.90;1.00;;;;;;6211145;23;20008;-88
2023/01/21 00:22:27;;;;;;;46.30;23.42;;;-4.90;1.00;;;;;;6209687;23;20063;-87
2023/01/21 00:25:14;;;;;;;38.20;21.20;;;-4.90;1.00;;;;;;6229813;23;20081;-87
2023/01/21 00:28:01;;;;;;;31.88;18.60;;;-4.90;1.00;;;;;;6197324;23;20024;-87
2023/01/21 00:30:48;;;;;;;40.85;22.08;;;-4.90;1.00;;;;;;6198641;23;20053;-88
2023/01/21 00:33:39;;;;;;;34.22;19.30;;;-4.90;1.00;;;;;;6196443;23;20021;-90
2023/01/21 00:36:28;;;;;;;33.75;19.52;;;-4.90;1.00;;;;;;6196886;23;20028;-86
2023/01/21 00:39:15;;;;;;;32.75;18.05;;;-5.00;1.00;;;;;;6195388;23;20460;-87
2023/01/21 00:42:03;;;;;;;31.60;17.35;;;-4.90;99.90;;;;;;6197097;23;20021;-87
2023/01/21 00:44:50;;;;;;;37.85;19.13;;;-4.90;56.30;;;;;;6198971;23;20035;-86
2023/01/21 00:47:42;;;;;;;35.45;17.45;;;-4.90;66.00;;;;;;6196602;23;20036;-87
2023/01/21 00:50:30;;;;;;;36.25;17.13;;;-5.00;99.90;;;;;;6194547;23;20049;-88
2023/01/21 00:53:17;;;;;;;30.73;17.70;;;-4.90;99.90;;;;;;6211163;23;20024;-88
2023/01/21 00:56:08;;;;;;;33.03;17.33;;;-4.90;99.90;;;;;;6194099;23;20025;-87
2023/01/21 00:58:55;;;;;;;47.03;22.38;;;-4.90;99.90;;;;;;6191390;23;20036;-88
2023/01/21 01:01:43;;;;;;;39.45;20.85;;;-4.80;99.90;;;;;;6196392;23;20029;-89
2023/01/21 01:04:30;;;;;;;34.28;19.80;;;-4.80;1.00;;;;;;6205265;23;20033;-85
2023/01/21 01:07:17;;;;;;;34.90;19.77;;;-4.80;99.90;;;;;;6203543;23;20095;-87
2023/01/21 01:10:09;;;;;;;39.80;21.13;;;-4.80;99.90;;;;;;6200597;23;20048;-89
2023/01/21 01:12:59;;;;;;;44.08;21.35;;;-4.80;99.90;;;;;;6197120;23;20048;-89
2023/01/21 01:15:47;;;;;;;38.22;18.92;;;-4.90;99.90;;;;;;6214988;23;20067;-88
2023/01/21 01:18:35;;;;;;;32.17;18.23;;;-5.00;99.90;;;;;;6213644;23;20021;-90
2023/01/21 01:21:23;;;;;;;35.55;19.65;;;-5.10;17.00;;;;;;6190012;23;20087;-88
2023/01/21 01:24:10;;;;;;;32.40;19.42;;;-5.20;29.50;;;;;;6190402;23;20333;-87
2023/01/21 01:26:58;;;;;;;30.85;18.52;;;-5.10;99.90;;;;;;6209419;23;20104;-89
2023/01/21 01:29:45;;;;;;;33.22;18.17;;;-5.10;1.00;;;;;;6187905;23;20028;-89
2023/01/21 01:32:32;;;;;;;26.90;16.92;;;-5.20;1.00;;;;;;6209010;23;20474;-89
2023/01/21 01:35:19;;;;;;;29.27;16.88;;;-5.30;1.00;;;;;;6208388;23;20125;-91
2023/01/21 01:38:08;;;;;;;26.88;16.30;;;-5.20;1.00;;;;;;6188331;23;20031;-89
2023/01/21 01:40:56;;;;;;;28.08;16.42;;;-5.20;99.90;;;;;;6207581;23;20036;-87
2023/01/21 01:44:01;;;;;;;29.63;16.33;;;-5.30;64.70;;;;;;6188075;23;20103;-87
2023/01/21 01:46:48;;;;;;;26.42;14.77;;;-5.20;1.00;;;;;;6187649;23;20033;-88
2023/01/21 01:49:36;;;;;;;33.72;16.40;;;-5.10;99.90;;;;;;6189461;23;20402;-88
2023/01/21 01:52:23;;;;;;;33.20;16.75;;;-5.20;99.90;;;;;;6187563;23;20483;-86
2023/01/21 01:55:14;;;;;;;34.28;15.05;;;-5.20;99.90;;;;;;6188384;23;20317;-88
2023/01/21 01:58:09;;;;;;;28.50;15.90;;;-5.20;1.00;;;;;;6188946;23;20021;-86
2023/01/21 02:00:58;;;;;;;28.67;16.85;;;-5.20;1.00;;;;;;6188903;23;20055;-87
2023/01/21 02:03:53;;;;;;;27.65;16.48;;;-5.30;1.00;;;;;;6188998;23;20067;-89
2023/01/21 02:06:44;;;;;;;30.80;16.85;;;-5.30;99.90;;;;;;6189818;23;20079;-88
2023/01/21 02:09:31;;;;;;;32.30;16.90;;;-5.40;99.90;;;;;;6189036;23;20028;-88
2023/01/21 02:12:24;;;;;;;34.03;15.90;;;-5.50;99.90;;;;;;6206369;23;20313;-90
2023/01/21 02:15:17;;;;;;;27.45;15.75;;;-5.50;99.90;;;;;;6187355;23;20021;-88
2023/01/21 02:18:28;;;;;;;26.33;15.40;;;-5.60;99.90;;;;;;6188191;23;20028;-88
2023/01/21 02:21:33;;;;;;;27.75;15.68;;;-5.80;42.00;;;;;;6187847;23;20079;-89
2023/01/21 02:24:45;;;;;;;28.40;15.75;;;-6.00;1.00;;;;;;6188124;23;20041;-89
2023/01/21 02:28:11;;;;;;;26.17;14.75;;;-6.10;62.40;;;;;;6186849;23;20033;-87
2023/01/21 02:31:34;;;;;;;29.65;15.02;;;-6.20;99.90;;;;;;6179985;23;20035;-89
2023/01/21 02:34:41;;;;;;;;;;;-6.30;1.00;;;;;;6195842;23;20082;-89
2023/01/21 02:37:49;;;;;;;23.60;13.40;;;-6.30;99.90;;;;;;6193412;23;19935;-89
2023/01/21 02:40:57;;;;;;;28.42;15.15;;;-6.30;99.90;;;;;;6187359;23;20056;-87
2023/01/21 02:43:50;;;;;;;27.73;15.02;;;-6.40;1.00;;;;;;6188742;23;20036;-89
2023/01/21 02:46:45;;;;;;;29.98;15.52;;;-6.50;1.00;;;;;;6186522;23;20025;-87
2023/01/21 02:49:57;;;;;;;29.17;16.27;;;-6.50;99.90;;;;;;6186652;23;20025;-88
2023/01/21 02:52:44;;;;;;;27.35;14.75;;;-6.50;1.00;;;;;;6185882;23;20087;-88
2023/01/21 02:55:36;;;;;;;30.83;16.73;;;-6.50;99.90;;;;;;6206866;23;20032;-89
2023/01/21 02:58:30;;;;;;;28.77;15.48;;;-6.50;86.50;;;;;;6187326;23;20029;-88
2023/01/21 03:01:17;;;;;;;29.98;16.00;;;-6.70;1.00;;;;;;6187586;23;20029;-89
2023/01/21 03:04:23;;;;;;;28.13;14.80;;;-6.60;1.00;;;;;;6185581;23;20421;-88
2023/01/21 03:07:19;;;;;;;23.10;14.43;;;-6.50;32.70;;;;;;6206330;23;20032;-89
2023/01/21 03:10:16;;;;;;;26.55;14.98;;;-6.60;99.90;;;;;;6186423;23;20037;-88
2023/01/21 03:16:55;;;;;;;29.13;16.42;;;-6.70;1.00;;;;;;6186573;23;20080;-89
2023/01/21 03:20:01;;;;;;;29.65;14.68;;;-6.70;1.00;;;;;;6185732;23;20025;-89
2023/01/21 03:22:52;;;;;;;33.10;16.80;;;-6.80;99.90;;;;;;6187166;23;20091;-89
2023/01/21 03:25:40;;;;;;;26.05;15.15;;;-7.00;99.90;;;;;;6186208;23;20099;-89
2023/01/21 03:28:32;;;;;;;27.90;15.88;;;-7.00;1.00;;;;;;6186727;23;20040;-89
2023/01/21 03:31:29;;;;;;;32.60;14.43;;;-7.10;1.00;;;;;;6185386;23;20391;-89
2023/01/21 03:34:19;;;;;;;30.67;14.23;;;-7.10;1.00;;;;;;6186981;23;20036;-88
2023/01/21 03:37:14;;;;;;;24.08;13.68;;;-7.00;99.90;;;;;;6186489;23;20021;-89
2023/01/21 03:40:24;;;;;;;24.35;13.15;;;-6.90;99.90;;;;;;6186385;23;20424;-88
2023/01/21 03:43:11;;;;;;;27.00;14.10;;;-6.90;99.90;;;;;;6188056;23;20099;-89
2023/01/21 03:46:05;;;;;;;31.58;13.65;;;-6.80;99.90;;;;;;6185558;23;20108;-89
2023/01/21 03:49:01;;;;;;;24.15;12.77;;;-6.80;99.90;;;;;;6185748;23;20025;-88
2023/01/21 03:51:54;;;;;;;25.60;13.07;;;-6.90;99.90;;;;;;6185500;23;20029;-87
2023/01/21 03:54:46;;;;;;;32.35;14.05;;;-7.10;69.00;;;;;;6185407;23;20025;-88
2023/01/21 03:57:34;;;;;;;26.92;14.70;;;-7.10;99.90;;;;;;6186321;23;20438;-90
2023/01/21 04:00:21;;;;;;;26.55;14.32;;;-7.20;99.90;;;;;;6187673;23;20029;-88
2023/01/21 04:03:08;;;;;;;26.13;14.25;;;-7.20;99.90;;;;;;6184802;23;20039;-81
2023/01/21 04:05:56;;;;;;;27.98;13.32;;;-7.20;99.90;;;;;;6185147;23;20052;-82
2023/01/21 04:08:43;;;;;;;26.73;13.77;;;-7.20;99.90;;;;;;6189684;23;20064;-80
2023/01/21 04:11:30;;;;;;;26.52;14.77;;;-7.20;99.90;;;;;;6187987;23;20144;-80
2023/01/21 04:14:18;;;;;;;24.00;13.30;;;-7.30;99.90;;;;;;6184404;23;20021;-79
2023/01/21 04:17:05;;;;;;;28.45;13.68;;;-7.30;99.90;;;;;;6184435;23;20072;-81
2023/01/21 04:19:53;;;;;;;32.05;14.88;;;-7.30;99.90;;;;;;6186074;23;20021;-82
2023/01/21 04:22:40;;;;;;;30.65;16.10;;;-7.20;99.90;;;;;;6184102;23;20130;-79
2023/01/21 04:25:27;;;;;;;30.55;15.40;;;-7.20;99.90;;;;;;6183509;23;20452;-80
2023/01/21 04:28:14;;;;;;;32.75;16.58;;;-7.20;99.90;;;;;;6185290;23;20425;-81
2023/01/21 04:31:04;;;;;;;33.13;16.30;;;-7.30;99.90;;;;;;6184467;23;20313;-81
2023/01/21 04:33:52;;;;;;;38.58;18.77;;;-7.40;99.90;;;;;;6186321;23;20413;-80
2023/01/21 04:36:40;;;;;;;56.90;24.00;;;-7.50;99.90;;;;;;6184172;23;20025;-82
2023/01/21 04:39:27;;;;;;;47.65;22.10;;;-7.50;99.90;;;;;;6184738;23;20032;-79
2023/01/21 04:42:14;;;;;;;43.83;20.23;;;-7.50;99.90;;;;;;6185440;23;20024;-79
2023/01/21 04:45:02;;;;;;;49.85;24.15;;;-7.50;99.90;;;;;;6185374;23;20199;-81
2023/01/21 04:47:49;;;;;;;45.70;20.83;;;-7.30;1.00;;;;;;6184613;23;20348;-79
2023/01/21 04:50:36;;;;;;;43.95;19.00;;;-7.30;1.00;;;;;;6182885;23;20052;-78
2023/01/21 04:53:24;;;;;;;47.42;19.17;;;-7.20;1.00;;;;;;6184586;23;20563;-82
2023/01/21 04:56:12;;;;;;;43.38;19.13;;;-7.10;1.00;;;;;;6204828;23;20111;-81
2023/01/21 04:58:59;;;;;;;35.88;17.05;;;-7.10;1.00;;;;;;6191136;23;20060;-78
2023/01/21 05:02:27;;;;;;;;;;;;;;;;;;;;;
2023/01/21 05:05:44;;;;;;;29.52;15.18;;;-7.00;1.00;;;;;;6122668;23;20336;-78
2023/01/21 05:08:34;;;;;;;30.17;16.35;;;-6.90;1.00;;;;;;6123189;23;20440;-80
2023/01/21 05:11:21;;;;;;;30.77;16.25;;;-6.80;1.00;;;;;;6130306;23;20037;-80
2023/01/21 05:14:08;;;;;;;30.30;15.88;;;-6.80;1.00;;;;;;6123261;23;20026;-80
2023/01/21 05:16:56;;;;;;;34.55;16.77;;;-6.90;1.00;;;;;;6122982;23;20070;-81
2023/01/21 05:19:43;;;;;;;43.25;20.48;;;-7.00;99.90;;;;;;6123298;23;20022;-81
2023/01/21 05:22:31;;;;;;;30.45;16.70;;;-7.10;99.90;;;;;;6124486;23;20037;-80
2023/01/21 05:25:18;;;;;;;38.72;16.48;;;-7.20;99.90;;;;;;6122169;23;20448;-79
2023/01/21 05:28:08;;;;;;;33.17;17.27;;;-7.20;99.90;;;;;;6123553;23;20026;-80
2023/01/21 05:31:00;;;;;;;40.45;19.73;;;-7.20;99.90;;;;;;6121726;23;20041;-80
2023/01/21 05:33:47;;;;;;;32.30;16.13;;;-7.20;99.90;;;;;;6123043;23;20033;-80
2023/01/21 05:36:35;;;;;;;43.45;17.77;;;-7.30;99.90;;;;;;6170266;23;20033;-81
2023/01/21 05:39:22;;;;;;;42.35;19.52;;;-7.40;99.90;;;;;;6183256;23;20032;-79
2023/01/21 05:42:09;;;;;;;49.63;20.85;;;-7.40;99.90;;;;;;6203068;23;20029;-79
2023/01/21 05:44:56;;;;;;;56.33;23.95;;;-7.40;99.90;;;;;;6182101;23;20099;-81
2023/01/21 05:47:43;;;;;;;42.97;20.23;;;-7.40;99.90;;;;;;6183997;23;20121;-80
2023/01/21 05:50:31;;;;;;;39.53;17.58;;;-7.40;99.90;;;;;;6207582;23;20025;-80
2023/01/21 05:53:24;;;;;;;41.42;18.35;;;-7.30;1.00;;;;;;6185026;23;20021;-80
2023/01/21 05:56:15;;;;;;;33.63;18.77;;;-7.30;99.90;;;;;;6186208;23;20029;-82
2023/01/21 05:59:02;;;;;;;29.75;16.50;;;-7.30;99.90;;;;;;6196342;23;20005;-79
2023/01/21 06:01:52;;;;;;;36.50;17.30;;;-7.30;99.90;;;;;;6221904;23;20063;-79
2023/01/21 06:04:40;;;;;;;35.83;16.55;;;-7.40;99.90;;;;;;6203522;23;20029;-80
2023/01/21 06:07:30;;;;;;;33.58;16.98;;;-7.40;99.90;;;;;;6220700;23;20373;-81
2023/01/21 06:10:17;;;;;;;35.60;18.48;;;-7.30;99.90;;;;;;6226246;23;20064;-78
2023/01/21 06:13:04;;;;;;;37.03;18.85;;;-7.20;99.90;;;;;;6205328;23;20017;-81
2023/01/21 06:15:55;;;;;;;38.70;17.98;;;-7.20;99.90;;;;;;6203035;23;20021;-80
2023/01/21 06:18:42;;;;;;;33.50;16.90;;;-7.30;99.90;;;;;;6211227;23;20081;-83
2023/01/21 06:21:30;;;;;;;34.00;17.58;;;-7.30;64.10;;;;;;6202879;23;20052;-79
2023/01/21 06:24:17;;;;;;;34.28;17.38;;;-7.40;1.00;;;;;;6220400;23;20060;-80
2023/01/21 06:27:04;;;;;;;36.08;19.13;;;-7.40;99.90;;;;;;6197167;23;20306;-79
2023/01/21 06:29:54;;;;;;;38.88;17.67;;;-7.50;99.90;;;;;;6188970;23;20057;-80
2023/01/21 06:32:41;;;;;;;30.88;16.05;;;-7.40;99.90;;;;;;6188735;23;20035;-80
2023/01/21 06:35:28;;;;;;;30.88;15.20;;;-7.40;99.90;;;;;;6186475;23;20338;-79
2023/01/21 06:38:16;;;;;;;27.35;15.10;;;-7.40;99.90;;;;;;6184695;23;20028;-80
2023/01/21 06:41:03;;;;;;;30.95;16.42;;;-7.10;1.00;;;;;;6185830;23;20091;-80
2023/01/21 06:43:51;;;;;;;28.45;15.80;;;-7.00;1.00;;;;;;6185140;23;20593;-81
2023/01/21 06:46:38;;;;;;;31.20;15.93;;;-6.90;1.00;;;;;;6193680;23;20035;-79
2023/01/21 06:49:31;;;;;;;30.13;16.40;;;-6.90;1.00;;;;;;6186507;23;20036;-79
2023/01/21 06:52:19;;;;;;;34.22;16.10;;;-6.90;1.00;;;;;;6183695;23;20025;-77
2023/01/21 06:55:06;;;;;;;29.77;15.77;;;-7.00;1.00;;;;;;6205848;23;20404;-79
2023/01/21 06:57:54;;;;;;;33.92;16.25;;;-7.00;1.00;;;;;;6185098;23;20116;-79
2023/01/21 07:00:43;;;;;;;34.78;18.13;;;-7.00;1.00;;;;;;6184466;23;20032;-80
2023/01/21 07:03:33;;;;;;;39.47;19.77;;;-6.80;1.00;;;;;;6183307;23;20039;-80
2023/01/21 07:06:24;;;;;;;42.95;20.27;;;-6.60;26.30;;;;;;6185984;23;20039;-79
2023/01/21 07:09:13;;;;;;;42.55;19.45;;;-6.30;49.60;;;;;;6184667;23;20033;-80
2023/01/21 07:12:01;;;;;;;37.47;19.95;;;-6.20;50.50;;;;;;6186709;23;20029;-80
2023/01/21 07:14:51;;;;;;;40.33;20.92;;;-6.00;90.40;;;;;;6186757;23;20087;-80
2023/01/21 07:17:38;;;;;;;49.20;22.90;;;-5.80;98.30;;;;;;6185266;23;20088;-82
2023/01/21 07:20:26;;;;;;;55.38;26.08;;;-5.70;99.90;;;;;;6186663;23;20393;-81
2023/01/21 07:23:13;;;;;;;55.80;26.73;;;-5.50;99.90;;;;;;6185294;23;20021;-81
2023/01/21 07:26:04;;;;;;;68.70;29.50;;;-5.30;99.90;;;;;;6205240;23;20096;-80
2023/01/21 07:28:54;;;;;;;67.22;30.10;;;-5.20;99.90;;;;;;6186807;23;20025;-82
2023/01/21 07:31:42;;;;;;;71.45;31.23;;;-5.00;99.90;;;;;;6185572;23;20033;-80
2023/01/21 07:34:35;;;;;;;69.82;31.65;;;-4.90;99.90;;;;;;6193471;23;20033;-80
2023/01/21 07:37:22;;;;;;;82.45;32.95;;;-4.80;99.90;;;;;;6187834;23;20025;-78
2023/01/21 07:40:10;;;;;;;87.00;37.50;;;-4.70;99.90;;;;;;6186970;23;20422;-81
2023/01/21 07:42:59;;;;;;;86.13;34.28;;;-4.60;99.90;;;;;;6184794;23;20290;-79
2023/01/21 07:45:47;;;;;;;82.13;34.55;;;-4.60;99.90;;;;;;6191696;23;20035;-81
2023/01/21 07:48:34;;;;;;;78.88;35.08;;;-4.50;99.90;;;;;;6188615;23;20021;-81
2023/01/21 07:51:23;;;;;;;86.55;36.40;;;-4.40;99.90;;;;;;6191948;23;20067;-79
2023/01/21 07:54:11;;;;;;;84.32;35.05;;;-4.40;99.90;;;;;;6189838;23;20401;-80
2023/01/21 07:56:58;;;;;;;92.40;35.67;;;-4.40;99.90;;;;;;6189578;23;20420;-80
2023/01/21 07:59:45;;;;;;;79.38;35.53;;;-4.30;99.90;;;;;;6185423;23;20021;-79
2023/01/21 08:03:25;;;;;;;89.63;36.15;;;-4.30;99.90;;;;;;6184967;23;20021;-79
2023/01/21 08:07:18;;;;;;;;;;;;;;;;;;;;;
2023/01/21 08:44:42;;;;;;;120.95;45.78;;;-3.50;99.90;;;;;;6122777;23;20014;-79
2023/01/21 08:48:13;;;;;;;107.53;44.95;;;-3.50;99.90;;;;;;6121621;23;20314;-77
2023/01/21 08:52:16;;;;;;;;;;;;;;;;;;;;;
2023/01/21 08:55:28;;;;;;;95.25;40.45;;;-3.40;97.60;;;;;;6127403;23;20026;-80
2023/01/21 09:03:55;;;;;;;96.05;40.63;;;-3.20;11.40;;;;;;6274293;22;20020;-86
2023/01/21 09:09:19;;;;;;;95.25;41.42;;;-3.00;1.00;;;;;;6259450;22;20038;-86
2023/01/21 09:12:07;;;;;;;93.30;41.35;;;-2.90;1.00;;;;;;6225334;22;20039;-84
2023/01/21 09:14:54;;;;;;;90.38;37.85;;;-2.80;1.00;;;;;;6221711;22;20029;-87
2023/01/21 09:17:41;;;;;;;89.88;38.50;;;-2.80;1.00;;;;;;6124862;23;20030;-86
2023/01/21 09:20:30;;;;;;;87.68;38.40;;;-2.70;1.00;;;;;;6124459;23;20409;-88
2023/01/21 09:23:24;;;;;;;98.82;41.90;;;-2.60;1.00;;;;;;6130450;23;20044;-87
2023/01/21 09:26:14;;;;;;;86.82;36.30;;;-2.50;1.00;;;;;;6129122;23;20331;-87
2023/01/21 09:29:02;;;;;;;70.68;32.33;;;-2.50;99.90;;;;;;6129578;23;20029;-87
2023/01/21 09:31:50;;;;;;;82.53;35.70;;;-2.30;90.50;;;;;;6128370;23;20026;-88
2023/01/21 09:34:45;;;;;;;76.05;33.90;;;-2.20;1.00;;;;;;6109213;23;20473;-88
2023/01/21 09:37:34;;;;;;;75.22;35.25;;;-2.00;99.90;;;;;;6128971;23;20030;-90
2023/01/21 09:40:24;;;;;;;75.70;33.28;;;-1.90;99.90;;;;;;6126047;23;20037;-85
2023/01/21 09:43:18;;;;;;;64.50;29.95;;;-1.80;1.00;;;;;;6132834;23;20057;-87
2023/01/21 09:46:16;;;;;;;72.78;32.03;;;-1.80;99.90;;;;;;6129244;23;20594;-87
2023/01/21 09:49:08;;;;;;;64.50;31.10;;;-1.60;1.00;;;;;;6136806;23;20120;-86
2023/01/21 09:52:05;;;;;;;59.75;29.77;;;-1.30;99.90;;;;;;6107938;23;20030;-86
2023/01/21 09:54:54;;;;;;;62.22;28.88;;;-1.10;1.00;;;;;;6125929;23;20540;-86
2023/01/21 09:58:07;;;;;;;56.90;28.25;;;-1.10;99.90;;;;;;6107368;23;20109;-90
2023/01/21 10:01:20;;;;;;;56.58;26.17;;;-1.00;1.00;;;;;;6108688;23;20483;-87
2023/01/21 10:04:39;;;;;;;51.90;25.63;;;-0.90;99.90;;;;;;6127599;23;20038;-86
2023/01/21 10:08:07;;;;;;;52.47;25.77;;;-0.70;1.00;;;;;;6136598;23;20025;-88
2023/01/21 10:11:29;;;;;;;52.95;26.73;;;-0.50;99.90;;;;;;6148416;23;20035;-81
2023/01/21 10:14:50;;;;;;;55.20;25.13;;;-0.90;39.70;;;;;;6141760;23;20307;-87
2023/01/21 10:18:10;;;;;;;56.80;25.15;;;-1.10;1.00;;;;;;6177271;23;20020;-86
2023/01/21 10:21:46;;;;;;;53.38;24.27;;;-1.20;99.90;;;;;;6173802;23;20033;-84
2023/01/21 10:24:38;;;;;;;49.08;24.05;;;-1.30;99.90;;;;;;6161314;23;20029;-88
2023/01/21 10:27:34;;;;;;;59.28;27.85;;;-1.40;99.90;;;;;;6170281;23;20049;-89
2023/01/21 10:30:35;;;;;;;54.92;26.45;;;-1.40;75.70;;;;;;6166238;23;20060;-86
2023/01/21 10:33:28;;;;;;;53.95;24.70;;;-1.40;6.60;;;;;;6158666;23;20037;-87
2023/01/21 10:36:15;;;;;;;52.85;23.35;;;-1.50;1.00;;;;;;6158616;23;20113;-88
2023/01/21 10:39:32;;;;;;;49.17;24.10;;;-1.60;1.00;;;;;;6158312;23;20025;-88
2023/01/21 10:43:05;;;;;;;45.50;22.30;;;-1.60;1.00;;;;;;6159590;23;20041;-89
2023/01/21 10:45:54;;;;;;;49.88;23.45;;;-1.60;1.00;;;;;;6161435;23;20033;-86
2023/01/21 10:49:04;;;;;;;46.05;21.92;;;-1.60;1.00;;;;;;6157257;23;20032;-88
2023/01/21 10:52:45;;;;;;;43.35;20.58;;;-1.60;1.00;;;;;;6157084;23;20025;-88
2023/01/21 10:55:54;;;;;;;51.63;22.50;;;-1.70;1.00;;;;;;6125800;23;20036;-87
2023/01/21 10:58:47;;;;;;;46.15;21.50;;;-1.80;1.00;;;;;;6157190;23;20026;-86
2023/01/21 11:01:46;;;;;;;49.95;22.50;;;-1.70;1.00;;;;;;6158032;23;20109;-89
2023/01/21 11:04:38;;;;;;;46.47;21.65;;;-1.70;1.00;;;;;;6158585;23;20026;-86
2023/01/21 11:07:33;;;;;;;43.47;22.50;;;-1.70;1.00;;;;;;6158478;23;20040;-87
2023/01/21 11:10:26;;;;;;;49.85;23.20;;;-1.70;1.00;;;;;;6157383;23;20049;-88
2023/01/21 11:13:13;;;;;;;43.45;21.85;;;-1.70;1.00;;;;;;6157465;23;20025;-88
2023/01/21 11:16:03;;;;;;;50.88;24.15;;;-1.70;1.00;;;;;;6192392;23;20031;-86
2023/01/21 11:18:50;;;;;;;48.05;23.27;;;-1.70;1.00;;;;;;6224162;23;20122;-86
2023/01/21 11:21:38;;;;;;;44.97;22.40;;;-1.70;1.00;;;;;;6248472;23;20024;-87
2023/01/21 11:24:30;;;;;;;49.75;24.35;;;-1.70;1.00;;;;;;6225986;23;20024;-86
2023/01/21 11:27:27;;;;;;;47.75;23.75;;;-1.70;1.00;;;;;;6245177;23;20320;-85
2023/01/21 11:30:36;;;;;;;51.15;24.20;;;-1.80;1.00;;;;;;6248192;23;20339;-86
2023/01/21 11:33:38;;;;;;;39.78;19.38;;;-1.80;1.00;;;;;;6234511;23;20076;-85
2023/01/21 11:36:25;;;;;;;53.20;25.33;;;-1.60;13.10;;;;;;6252695;23;20330;-85
2023/01/21 11:39:13;;;;;;;53.72;23.75;;;-1.60;1.00;;;;;;6250354;23;20028;-86
2023/01/21 11:42:26;;;;;;;43.80;22.15;;;-1.50;1.00;;;;;;6251514;23;20020;-86
2023/01/21 11:45:25;;;;;;;48.97;22.42;;;-1.40;1.00;;;;;;6244751;23;20056;-86
2023/01/21 11:48:20;;;;;;;46.17;22.52;;;-1.40;1.00;;;;;;6257659;23;20028;-84
2023/01/21 11:51:07;;;;;;;46.00;21.33;;;-1.30;1.00;;;;;;6225735;23;20119;-86
2023/01/21 11:54:07;;;;;;;46.60;22.23;;;-1.20;1.00;;;;;;6223809;23;20030;-87
2023/01/21 11:57:01;;;;;;;43.60;22.55;;;-1.00;1.00;;;;;;6246830;23;20024;-86
2023/01/21 11:59:53;;;;;;;40.90;22.10;;;-0.90;99.90;;;;;;6227709;23;20031;-86
2023/01/21 12:02:46;;;;;;;41.67;21.38;;;-1.00;99.90;;;;;;6246204;23;20031;-85
2023/01/21 12:05:39;;;;;;;44.60;22.13;;;-1.10;99.90;;;;;;6226443;23;20028;-85
2023/01/21 12:08:32;;;;;;;46.78;22.40;;;-1.10;99.90;;;;;;6241040;22;20047;-84
2023/01/21 12:11:29;;;;;;;47.83;23.90;;;-1.00;99.90;;;;;;6248673;23;20055;-84
2023/01/21 12:14:19;;;;;;;47.75;23.77;;;-0.90;99.90;;;;;;6261995;23;20075;-86
2023/01/21 12:17:27;;;;;;;42.72;22.38;;;-0.80;99.90;;;;;;6283058;22;20020;-85
2023/01/21 12:20:50;;;;;;;44.55;22.80;;;-0.80;99.90;;;;;;6278123;22;20043;-85
2023/01/21 12:23:58;;;;;;;50.95;23.13;;;-0.90;99.90;;;;;;6254131;22;20050;-85
2023/01/21 12:26:58;;;;;;;39.20;20.95;;;-1.00;99.90;;;;;;6277535;22;20122;-86
2023/01/21 12:30:03;;;;;;;49.53;23.58;;;-1.00;99.90;;;;;;6279411;22;20023;-86
2023/01/21 12:32:55;;;;;;;44.47;22.98;;;-1.10;99.90;;;;;;6255484;22;20127;-85
2023/01/21 12:35:50;;;;;;;40.50;22.23;;;-1.00;99.90;;;;;;6293791;22;20026;-85
2023/01/21 12:38:42;;;;;;;39.80;21.60;;;-1.00;99.90;;;;;;6278447;22;20027;-85
2023/01/21 12:41:35;;;;;;;45.20;23.58;;;-1.10;99.90;;;;;;6258245;22;20375;-86
2023/01/21 12:44:36;;;;;;;46.92;23.92;;;-1.20;99.90;;;;;;6278145;22;20174;-87
2023/01/21 12:47:31;;;;;;;48.63;22.52;;;-1.30;99.90;;;;;;6279781;22;20042;-84
2023/01/21 12:50:30;;;;;;;46.25;22.73;;;-1.30;99.90;;;;;;6256763;22;20353;-86
2023/01/21 12:53:42;;;;;;;46.47;23.10;;;-1.40;99.90;;;;;;6259585;22;20028;-87
2023/01/21 12:56:55;;;;;;;45.92;23.42;;;-1.40;99.90;;;;;;6275432;22;20426;-85
2023/01/21 13:00:01;;;;;;;49.65;24.35;;;-1.50;99.90;;;;;;6260423;22;20030;-88
2023/01/21 13:02:52;;;;;;;54.35;24.60;;;-1.60;1.00;;;;;;6276465;22;20128;-85
2023/01/21 13:06:00;;;;;;;51.72;24.15;;;-1.70;1.00;;;;;;6255085;22;20042;-86
2023/01/21 13:09:10;;;;;;;47.30;24.40;;;-1.70;1.00;;;;;;6252065;22;20280;-85
2023/01/21 13:12:03;;;;;;;45.97;24.15;;;-1.70;7.90;;;;;;6275412;22;20055;-86
2023/01/21 13:14:58;;;;;;;59.67;23.38;;;-1.60;93.90;;;;;;6269443;22;20028;-84
2023/01/21 13:17:53;;;;;;;43.00;22.30;;;-1.50;21.00;;;;;;6243689;23;20028;-85
2023/01/21 13:20:49;;;;;;;48.78;24.45;;;-1.50;1.00;;;;;;6242634;23;20035;-85
2023/01/21 13:23:48;;;;;;;50.45;21.60;;;-1.40;8.60;;;;;;6255504;23;20090;-84
2023/01/21 13:27:03;;;;;;;47.65;23.45;;;-1.40;1.00;;;;;;6239957;23;20028;-81
2023/01/21 13:30:20;;;;;;;43.63;22.35;;;-1.40;1.00;;;;;;6242923;23;20028;-86
2023/01/21 13:33:41;;;;;;;39.17;21.95;;;-1.30;1.00;;;;;;6244375;23;20257;-86
2023/01/21 13:36:28;;;;;;;50.80;23.58;;;-1.40;1.00;;;;;;6265496;22;20416;-87
2023/01/21 13:39:42;;;;;;;46.45;22.35;;;-1.40;1.00;;;;;;6246046;23;20331;-88
2023/01/21 13:43:03;;;;;;;46.20;21.35;;;-1.30;1.00;;;;;;6245304;23;20323;-87
2023/01/21 13:46:13;;;;;;;47.47;23.25;;;-1.20;1.00;;;;;;6245536;23;20480;-88
2023/01/21 13:49:07;;;;;;;46.38;22.83;;;-1.40;1.00;;;;;;6241338;23;20028;-85
2023/01/21 13:52:16;;;;;;;47.10;22.55;;;-1.50;1.00;;;;;;6244796;23;20042;-88
2023/01/21 13:55:30;;;;;;;43.97;21.35;;;-1.50;1.00;;;;;;6244082;23;20035;-87
2023/01/21 13:58:43;;;;;;;48.45;22.88;;;-1.60;1.00;;;;;;6245221;23;20028;-88
2023/01/21 14:01:57;;;;;;;47.35;21.33;;;-1.60;1.00;;;;;;6243658;23;20307;-87
2023/01/21 14:04:55;;;;;;;43.13;22.55;;;-1.60;78.00;;;;;;6241715;23;20067;-87
2023/01/21 14:08:06;;;;;;;45.47;21.40;;;-1.70;80.80;;;;;;6241792;23;20027;-86
2023/01/21 14:10:58;;;;;;;41.58;21.75;;;-1.70;99.90;;;;;;6254805;23;20028;-86
2023/01/21 14:14:19;;;;;;;47.65;22.77;;;-1.70;99.90;;;;;;6234052;23;20023;-87
2023/01/21 14:17:44;;;;;;;43.45;21.65;;;-1.70;99.90;;;;;;6241632;23;20407;-85
2023/01/21 14:20:49;;;;;;;44.92;23.00;;;-1.70;99.90;;;;;;6152674;23;20022;-86
2023/01/21 14:23:58;;;;;;;43.88;21.30;;;-1.70;99.90;;;;;;6245313;23;20020;-86
2023/01/21 14:27:18;;;;;;;43.65;22.80;;;-1.60;99.90;;;;;;6245936;23;20067;-84
2023/01/21 14:30:19;;;;;;;44.08;20.13;;;-1.60;1.00;;;;;;6240959;23;20094;-84
2023/01/21 14:33:23;;;;;;;44.33;21.88;;;-1.60;1.00;;;;;;6241660;23;20347;-85
2023/01/21 14:36:33;;;;;;;40.85;20.48;;;-1.70;1.00;;;;;;6244447;23;20039;-85
2023/01/21 14:39:33;;;;;;;50.72;22.52;;;-1.60;1.00;;;;;;6244435;23;20398;-86
2023/01/21 14:42:48;;;;;;;41.88;21.35;;;-1.60;1.00;;;;;;6242523;23;20024;-86
2023/01/21 14:46:00;;;;;;;45.33;21.45;;;-1.70;1.00;;;;;;6243845;23;20044;-86
2023/01/21 14:49:07;;;;;;;40.75;20.55;;;-1.60;31.60;;;;;;6238617;23;20074;-86
2023/01/21 14:51:54;;;;;;;37.80;20.23;;;-1.60;10.80;;;;;;6244171;23;20415;-84
2023/01/21 14:54:44;;;;;;;42.03;20.98;;;-1.70;99.90;;;;;;6237007;23;20126;-84
2023/01/21 14:57:35;;;;;;;42.58;20.65;;;-1.70;99.90;;;;;;6273971;22;20024;-86
2023/01/21 15:00:25;;;;;;;43.00;22.10;;;-1.80;99.90;;;;;;6245140;23;20300;-86
2023/01/21 15:03:21;;;;;;;46.88;23.17;;;-1.80;1.00;;;;;;6237032;23;20107;-85
2023/01/21 15:06:17;;;;;;;49.17;22.77;;;-1.80;1.00;;;;;;6247765;23;20020;-83
2023/01/21 15:09:06;;;;;;;54.58;23.75;;;-1.90;99.90;;;;;;6251686;23;20020;-84
2023/01/21 15:12:26;;;;;;;45.42;22.38;;;-1.90;99.90;;;;;;6248397;23;20328;-85
2023/01/21 15:15:35;;;;;;;53.50;25.60;;;-2.00;1.00;;;;;;6236914;23;20375;-84
2023/01/21 15:18:43;;;;;;;52.58;23.70;;;-2.00;1.00;;;;;;6215515;23;20037;-86
2023/01/21 15:21:42;;;;;;;57.17;25.95;;;-2.10;99.90;;;;;;6227384;23;20047;-87
2023/01/21 15:24:31;;;;;;;56.65;25.88;;;-2.10;1.00;;;;;;6214551;23;20028;-83
2023/01/21 15:27:26;;;;;;;54.58;24.77;;;-2.20;1.00;;;;;;6216117;23;20104;-87
2023/01/21 15:30:14;;;;;;;49.55;24.75;;;-2.20;99.90;;;;;;6215882;23;20385;-85
2023/01/21 15:33:01;;;;;;;49.05;24.90;;;-2.20;99.90;;;;;;6216851;23;20028;-87
2023/01/21 15:35:49;;;;;;;59.50;25.45;;;-2.20;99.90;;;;;;6214403;23;20122;-88
2023/01/21 15:38:40;;;;;;;52.30;24.52;;;-2.30;1.00;;;;;;6212261;23;20569;-84
2023/01/21 15:42:07;;;;;;;55.97;24.75;;;-2.20;99.90;;;;;;6214978;23;20043;-85
2023/01/21 15:45:04;;;;;;;;;;;-2.30;99.90;;;;;;6213664;23;20056;-84
2023/01/21 15:48:06;;;;;;;54.65;23.95;;;-2.30;1.00;;;;;;6213587;23;19990;-87